sensor_id;sensor_type;location;lat;lon;timestamp;P1;durP1;ratioP1;P2;durP2;ratioP2
53753;SDS011;39667;52.274;20.964;2022-08-04T00:00:04;5.60;;;4.50;;
53753;SDS011;39667;52.274;20.964;2022-08-04T00:10:47;5.00;;;4.50;;
53753;SDS011;39667;52.274;20.964;2022-08-04T00:13:16;7.70;;;4.80;;
53753;SDS011;39667;52.274;20.964;2022-08-04T00:15:56;8.10;;;4.80;;
53753;SDS011;39667;52.274;20.964;2022-08-04T00:18:26;5.40;;;4.10;;
53753;SDS011;39667;52.274;20.964;2022-08-04T00:20:59;6.00;;;4.30;;
53753;SDS011;39667;52.274;20.964;2022-08-04T00:23:31;11.30;;;4.40;;
53753;SDS011;39667;52.274;20.964;2022-08-04T00:26:20;4.40;;;4.00;;
53753;SDS011;39667;52.274;20.964;2022-08-04T00:28:51;9.10;;;4.20;;
53753;SDS011;39667;52.274;20.964;2022-08-04T00:31:19;3.80;;;3.50;;
53753;SDS011;39667;52.274;20.964;2022-08-04T00:34:09;3.90;;;3.00;;
53753;SDS011;39667;52.274;20.964;2022-08-04T00:36:39;4.80;;;3.80;;
53753;SDS011;39667;52.274;20.964;2022-08-04T00:39:10;6.60;;;4.00;;
53753;SDS011;39667;52.274;20.964;2022-08-04T00:41:41;4.10;;;3.50;;
53753;SDS011;39667;52.274;20.964;2022-08-04T00:44:29;4.70;;;3.70;;
53753;SDS011;39667;52.274;20.964;2022-08-04T00:50:50;4.30;;;3.90;;
53753;SDS011;39667;52.274;20.964;2022-08-04T01:00:07;5.40;;;3.30;;
53753;SDS011;39667;52.274;20.964;2022-08-04T01:02:54;3.80;;;3.40;;
53753;SDS011;39667;52.274;20.964;2022-08-04T01:08:51;3.60;;;3.20;;
53753;SDS011;39667;52.274;20.964;2022-08-04T01:11:50;5.20;;;3.30;;
53753;SDS011;39667;52.274;20.964;2022-08-04T01:14:36;5.60;;;2.90;;
53753;SDS011;39667;52.274;20.964;2022-08-04T01:18:26;3.30;;;3.00;;
53753;SDS011;39667;52.274;20.964;2022-08-04T01:20:34;3.30;;;3.00;;
53753;SDS011;39667;52.274;20.964;2022-08-04T01:29:08;4.30;;;2.90;;
53753;SDS011;39667;52.274;20.964;2022-08-04T01:34:15;3.90;;;3.00;;
53753;SDS011;39667;52.274;20.964;2022-08-04T01:36:45;6.50;;;3.00;;
53753;SDS011;39667;52.274;20.964;2022-08-04T01:39:19;2.90;;;2.60;;
53753;SDS011;39667;52.274;20.964;2022-08-04T01:42:05;3.00;;;2.70;;
53753;SDS011;39667;52.274;20.964;2022-08-04T01:47:30;4.90;;;2.80;;
53753;SDS011;39667;52.274;20.964;2022-08-04T01:50:03;2.90;;;2.60;;
53753;SDS011;39667;52.274;20.964;2022-08-04T01:52:35;4.60;;;2.90;;
53753;SDS011;39667;52.274;20.964;2022-08-04T01:55:04;3.70;;;3.00;;
53753;SDS011;39667;52.274;20.964;2022-08-04T02:01:57;3.10;;;2.90;;
53753;SDS011;39667;52.274;20.964;2022-08-04T02:09:36;4.40;;;2.50;;
53753;SDS011;39667;52.274;20.964;2022-08-04T02:16:43;5.40;;;3.00;;
53753;SDS011;39667;52.274;20.964;2022-08-04T02:19:01;3.70;;;3.00;;
53753;SDS011;39667;52.274;20.964;2022-08-04T02:21:40;3.60;;;2.90;;
53753;SDS011;39667;52.274;20.964;2022-08-04T02:24:13;3.90;;;2.40;;
53753;SDS011;39667;52.274;20.964;2022-08-04T02:26:45;4.60;;;2.50;;
53753;SDS011;39667;52.274;20.964;2022-08-04T02:29:19;4.70;;;2.70;;
53753;SDS011;39667;52.274;20.964;2022-08-04T02:37:48;4.60;;;2.50;;
53753;SDS011;39667;52.274;20.964;2022-08-04T02:41:53;3.60;;;2.30;;
53753;SDS011;39667;52.274;20.964;2022-08-04T02:44:22;3.80;;;2.70;;
53753;SDS011;39667;52.274;20.964;2022-08-04T02:46:52;2.90;;;2.40;;
53753;SDS011;39667;52.274;20.964;2022-08-04T02:53:32;2.30;;;2.00;;
53753;SDS011;39667;52.274;20.964;2022-08-04T02:56:03;3.60;;;2.80;;
53753;SDS011;39667;52.274;20.964;2022-08-04T02:58:33;2.60;;;2.40;;
53753;SDS011;39667;52.274;20.964;2022-08-04T03:01:03;3.40;;;2.60;;
53753;SDS011;39667;52.274;20.964;2022-08-04T03:03:42;3.20;;;2.60;;
53753;SDS011;39667;52.274;20.964;2022-08-04T03:28:28;3.50;;;2.30;;
53753;SDS011;39667;52.274;20.964;2022-08-04T03:34:20;3.40;;;2.50;;
53753;SDS011;39667;52.274;20.964;2022-08-04T03:50:53;3.70;;;2.70;;
53753;SDS011;39667;52.274;20.964;2022-08-04T03:54:07;4.50;;;2.80;;
53753;SDS011;39667;52.274;20.964;2022-08-04T03:56:48;5.70;;;3.10;;
53753;SDS011;39667;52.274;20.964;2022-08-04T04:14:36;2.70;;;2.50;;
53753;SDS011;39667;52.274;20.964;2022-08-04T04:22:43;4.60;;;2.80;;
53753;SDS011;39667;52.274;20.964;2022-08-04T04:25:30;3.30;;;2.60;;
53753;SDS011;39667;52.274;20.964;2022-08-04T04:28:35;7.40;;;3.10;;
53753;SDS011;39667;52.274;20.964;2022-08-04T04:56:49;4.20;;;3.80;;
53753;SDS011;39667;52.274;20.964;2022-08-04T04:59:22;5.80;;;4.10;;
53753;SDS011;39667;52.274;20.964;2022-08-04T05:15:36;7.40;;;3.50;;
53753;SDS011;39667;52.274;20.964;2022-08-04T05:18:08;7.30;;;3.80;;
53753;SDS011;39667;52.274;20.964;2022-08-04T05:20:43;5.90;;;3.50;;
53753;SDS011;39667;52.274;20.964;2022-08-04T05:23:17;4.00;;;3.40;;
53753;SDS011;39667;52.274;20.964;2022-08-04T05:25:52;6.10;;;3.80;;
53753;SDS011;39667;52.274;20.964;2022-08-04T05:28:29;9.00;;;3.80;;
53753;SDS011;39667;52.274;20.964;2022-08-04T05:31:11;4.00;;;3.30;;
53753;SDS011;39667;52.274;20.964;2022-08-04T05:33:49;7.60;;;3.50;;
53753;SDS011;39667;52.274;20.964;2022-08-04T05:36:23;4.10;;;3.50;;
53753;SDS011;39667;52.274;20.964;2022-08-04T05:39:09;3.70;;;3.30;;
53753;SDS011;39667;52.274;20.964;2022-08-04T05:41:42;5.00;;;3.50;;
53753;SDS011;39667;52.274;20.964;2022-08-04T05:44:21;6.10;;;4.00;;
53753;SDS011;39667;52.274;20.964;2022-08-04T05:46:51;6.50;;;3.60;;
53753;SDS011;39667;52.274;20.964;2022-08-04T05:49:25;4.20;;;3.40;;
53753;SDS011;39667;52.274;20.964;2022-08-04T05:51:56;6.40;;;3.60;;
53753;SDS011;39667;52.274;20.964;2022-08-04T05:54:32;4.80;;;3.20;;
53753;SDS011;39667;52.274;20.964;2022-08-04T05:57:04;6.10;;;3.70;;
53753;SDS011;39667;52.274;20.964;2022-08-04T05:59:33;7.90;;;3.50;;
53753;SDS011;39667;52.274;20.964;2022-08-04T06:02:04;6.80;;;4.10;;
53753;SDS011;39667;52.274;20.964;2022-08-04T06:04:34;6.40;;;3.50;;
53753;SDS011;39667;52.274;20.964;2022-08-04T06:07:05;7.50;;;4.30;;
53753;SDS011;39667;52.274;20.964;2022-08-04T06:09:33;8.30;;;3.50;;
53753;SDS011;39667;52.274;20.964;2022-08-04T06:12:01;5.90;;;3.60;;
53753;SDS011;39667;52.274;20.964;2022-08-04T06:14:38;8.70;;;3.60;;
53753;SDS011;39667;52.274;20.964;2022-08-04T06:17:10;6.60;;;4.10;;
53753;SDS011;39667;52.274;20.964;2022-08-04T06:20:00;5.40;;;3.80;;
53753;SDS011;39667;52.274;20.964;2022-08-04T06:22:54;4.80;;;3.40;;
53753;SDS011;39667;52.274;20.964;2022-08-04T06:25:25;4.50;;;3.30;;
53753;SDS011;39667;52.274;20.964;2022-08-04T06:27:56;4.20;;;3.30;;
53753;SDS011;39667;52.274;20.964;2022-08-04T06:30:25;5.70;;;3.60;;
53753;SDS011;39667;52.274;20.964;2022-08-04T06:32:56;4.80;;;3.50;;
53753;SDS011;39667;52.274;20.964;2022-08-04T06:35:31;10.00;;;3.90;;
53753;SDS011;39667;52.274;20.964;2022-08-04T06:37:59;5.60;;;3.90;;
53753;SDS011;39667;52.274;20.964;2022-08-04T06:40:27;5.30;;;3.20;;
53753;SDS011;39667;52.274;20.964;2022-08-04T06:43:00;8.30;;;3.30;;
53753;SDS011;39667;52.274;20.964;2022-08-04T06:45:28;5.70;;;3.30;;
53753;SDS011;39667;52.274;20.964;2022-08-04T06:47:57;12.00;;;3.80;;
53753;SDS011;39667;52.274;20.964;2022-08-04T06:50:26;10.30;;;3.70;;
53753;SDS011;39667;52.274;20.964;2022-08-04T06:53:15;4.00;;;3.60;;
53753;SDS011;39667;52.274;20.964;2022-08-04T06:55:43;7.60;;;3.40;;
53753;SDS011;39667;52.274;20.964;2022-08-04T06:58:13;5.10;;;3.60;;
53753;SDS011;39667;52.274;20.964;2022-08-04T07:00:42;6.50;;;3.60;;
53753;SDS011;39667;52.274;20.964;2022-08-04T07:03:14;6.90;;;3.90;;
53753;SDS011;39667;52.274;20.964;2022-08-04T07:05:45;4.00;;;3.40;;
53753;SDS011;39667;52.274;20.964;2022-08-04T07:08:17;9.20;;;4.00;;
53753;SDS011;39667;52.274;20.964;2022-08-04T07:10:45;7.00;;;3.50;;
53753;SDS011;39667;52.274;20.964;2022-08-04T07:13:13;8.10;;;3.20;;
53753;SDS011;39667;52.274;20.964;2022-08-04T07:15:43;9.00;;;3.80;;
53753;SDS011;39667;52.274;20.964;2022-08-04T07:18:12;3.10;;;2.80;;
53753;SDS011;39667;52.274;20.964;2022-08-04T07:20:40;6.40;;;3.00;;
53753;SDS011;39667;52.274;20.964;2022-08-04T07:23:11;3.60;;;2.80;;
53753;SDS011;39667;52.274;20.964;2022-08-04T07:25:43;4.80;;;2.70;;
53753;SDS011;39667;52.274;20.964;2022-08-04T07:28:36;4.80;;;3.00;;
53753;SDS011;39667;52.274;20.964;2022-08-04T07:31:05;5.20;;;3.40;;
53753;SDS011;39667;52.274;20.964;2022-08-04T07:33:56;3.80;;;2.60;;
53753;SDS011;39667;52.274;20.964;2022-08-04T07:36:44;8.10;;;2.60;;
53753;SDS011;39667;52.274;20.964;2022-08-04T07:39:18;3.70;;;2.60;;
53753;SDS011;39667;52.274;20.964;2022-08-04T07:41:54;7.30;;;2.50;;
53753;SDS011;39667;52.274;20.964;2022-08-04T07:44:22;4.40;;;2.10;;
53753;SDS011;39667;52.274;20.964;2022-08-04T07:46:50;3.90;;;2.50;;
53753;SDS011;39667;52.274;20.964;2022-08-04T07:49:17;4.90;;;2.60;;
53753;SDS011;39667;52.274;20.964;2022-08-04T07:52:05;5.40;;;2.50;;
53753;SDS011;39667;52.274;20.964;2022-08-04T07:54:33;5.10;;;2.40;;
53753;SDS011;39667;52.274;20.964;2022-08-04T07:57:01;3.90;;;2.30;;
53753;SDS011;39667;52.274;20.964;2022-08-04T07:59:29;6.20;;;2.60;;
53753;SDS011;39667;52.274;20.964;2022-08-04T08:02:00;5.90;;;2.70;;
53753;SDS011;39667;52.274;20.964;2022-08-04T08:04:28;4.10;;;2.60;;
53753;SDS011;39667;52.274;20.964;2022-08-04T08:06:56;4.60;;;2.60;;
53753;SDS011;39667;52.274;20.964;2022-08-04T08:09:24;6.20;;;2.40;;
53753;SDS011;39667;52.274;20.964;2022-08-04T08:11:51;4.80;;;2.30;;
53753;SDS011;39667;52.274;20.964;2022-08-04T08:14:40;5.60;;;2.80;;
53753;SDS011;39667;52.274;20.964;2022-08-04T08:17:07;4.70;;;2.30;;
53753;SDS011;39667;52.274;20.964;2022-08-04T08:19:34;4.90;;;2.20;;
53753;SDS011;39667;52.274;20.964;2022-08-04T08:22:01;3.70;;;2.10;;
53753;SDS011;39667;52.274;20.964;2022-08-04T08:24:29;3.40;;;2.10;;
53753;SDS011;39667;52.274;20.964;2022-08-04T08:27:00;7.10;;;2.80;;
53753;SDS011;39667;52.274;20.964;2022-08-04T08:29:29;3.20;;;2.00;;
53753;SDS011;39667;52.274;20.964;2022-08-04T08:32:00;9.80;;;2.10;;
53753;SDS011;39667;52.274;20.964;2022-08-04T08:34:34;2.50;;;2.30;;
53753;SDS011;39667;52.274;20.964;2022-08-04T08:52:25;4.70;;;2.20;;
53753;SDS011;39667;52.274;20.964;2022-08-04T08:55:22;2.40;;;1.90;;
53753;SDS011;39667;52.274;20.964;2022-08-04T08:58:05;3.00;;;2.00;;
53753;SDS011;39667;52.274;20.964;2022-08-04T09:06:53;4.20;;;2.20;;
53753;SDS011;39667;52.274;20.964;2022-08-04T09:15:17;3.30;;;2.10;;
53753;SDS011;39667;52.274;20.964;2022-08-04T09:20:39;2.20;;;1.80;;
53753;SDS011;39667;52.274;20.964;2022-08-04T09:23:17;2.40;;;1.90;;
53753;SDS011;39667;52.274;20.964;2022-08-04T09:25:58;2.20;;;1.80;;
53753;SDS011;39667;52.274;20.964;2022-08-04T09:28:37;3.40;;;1.80;;
53753;SDS011;39667;52.274;20.964;2022-08-04T09:31:21;2.00;;;1.90;;
53753;SDS011;39667;52.274;20.964;2022-08-04T09:34:18;3.80;;;2.20;;
53753;SDS011;39667;52.274;20.964;2022-08-04T09:37:01;4.40;;;2.30;;
53753;SDS011;39667;52.274;20.964;2022-08-04T09:39:41;3.30;;;1.80;;
53753;SDS011;39667;52.274;20.964;2022-08-04T09:42:40;3.10;;;2.00;;
53753;SDS011;39667;52.274;20.964;2022-08-04T09:48:22;9.60;;;3.10;;
53753;SDS011;39667;52.274;20.964;2022-08-04T09:50:58;4.40;;;1.80;;
53753;SDS011;39667;52.274;20.964;2022-08-04T09:53:29;2.20;;;1.80;;
53753;SDS011;39667;52.274;20.964;2022-08-04T09:59:20;2.70;;;1.80;;
53753;SDS011;39667;52.274;20.964;2022-08-04T10:01:54;3.30;;;1.90;;
53753;SDS011;39667;52.274;20.964;2022-08-04T10:04:27;53.40;;;7.50;;
53753;SDS011;39667;52.274;20.964;2022-08-04T10:15:29;7.00;;;2.60;;
53753;SDS011;39667;52.274;20.964;2022-08-04T10:18:35;3.10;;;2.00;;
53753;SDS011;39667;52.274;20.964;2022-08-04T10:29:31;5.50;;;1.90;;
53753;SDS011;39667;52.274;20.964;2022-08-04T10:37:41;7.80;;;2.50;;
53753;SDS011;39667;52.274;20.964;2022-08-04T10:40:35;5.90;;;2.40;;
53753;SDS011;39667;52.274;20.964;2022-08-04T10:46:22;2.70;;;2.50;;
53753;SDS011;39667;52.274;20.964;2022-08-04T10:48:59;2.60;;;2.10;;
53753;SDS011;39667;52.274;20.964;2022-08-04T10:54:41;5.10;;;2.50;;
53753;SDS011;39667;52.274;20.964;2022-08-04T10:57:25;5.60;;;2.30;;
53753;SDS011;39667;52.274;20.964;2022-08-04T11:00:14;2.20;;;2.10;;
53753;SDS011;39667;52.274;20.964;2022-08-04T11:06:00;6.30;;;2.10;;
53753;SDS011;39667;52.274;20.964;2022-08-04T11:08:32;4.60;;;2.40;;
53753;SDS011;39667;52.274;20.964;2022-08-04T11:13:41;5.00;;;2.30;;
53753;SDS011;39667;52.274;20.964;2022-08-04T11:16:15;4.90;;;2.10;;
53753;SDS011;39667;52.274;20.964;2022-08-04T11:21:27;5.50;;;2.40;;
53753;SDS011;39667;52.274;20.964;2022-08-04T11:24:02;4.40;;;2.10;;
53753;SDS011;39667;52.274;20.964;2022-08-04T11:26:43;10.00;;;2.40;;
53753;SDS011;39667;52.274;20.964;2022-08-04T11:31:50;7.50;;;3.00;;
53753;SDS011;39667;52.274;20.964;2022-08-04T11:37:10;3.80;;;2.10;;
53753;SDS011;39667;52.274;20.964;2022-08-04T11:42:19;2.70;;;2.00;;
53753;SDS011;39667;52.274;20.964;2022-08-04T11:44:50;3.20;;;2.20;;
53753;SDS011;39667;52.274;20.964;2022-08-04T11:47:28;2.90;;;2.00;;
53753;SDS011;39667;52.274;20.964;2022-08-04T11:50:03;5.40;;;2.00;;
53753;SDS011;39667;52.274;20.964;2022-08-04T11:52:37;4.80;;;1.70;;
53753;SDS011;39667;52.274;20.964;2022-08-04T11:55:08;5.00;;;1.90;;
53753;SDS011;39667;52.274;20.964;2022-08-04T11:57:39;4.70;;;1.90;;
53753;SDS011;39667;52.274;20.964;2022-08-04T12:00:07;4.50;;;2.40;;
53753;SDS011;39667;52.274;20.964;2022-08-04T12:05:07;4.80;;;2.70;;
53753;SDS011;39667;52.274;20.964;2022-08-04T12:13:40;6.00;;;2.00;;
53753;SDS011;39667;52.274;20.964;2022-08-04T12:16:31;4.30;;;2.50;;
53753;SDS011;39667;52.274;20.964;2022-08-04T12:19:23;3.60;;;1.80;;
53753;SDS011;39667;52.274;20.964;2022-08-04T12:22:43;4.60;;;1.80;;
53753;SDS011;39667;52.274;20.964;2022-08-04T12:25:15;1.90;;;1.80;;
53753;SDS011;39667;52.274;20.964;2022-08-04T12:31:43;2.40;;;2.10;;
53753;SDS011;39667;52.274;20.964;2022-08-04T12:34:16;5.60;;;2.40;;
53753;SDS011;39667;52.274;20.964;2022-08-04T12:37:16;1.70;;;1.60;;
53753;SDS011;39667;52.274;20.964;2022-08-04T12:39:52;2.20;;;2.00;;
53753;SDS011;39667;52.274;20.964;2022-08-04T12:42:46;3.20;;;1.80;;
53753;SDS011;39667;52.274;20.964;2022-08-04T12:45:25;2.20;;;1.90;;
53753;SDS011;39667;52.274;20.964;2022-08-04T12:47:56;3.60;;;1.80;;
53753;SDS011;39667;52.274;20.964;2022-08-04T12:50:25;3.10;;;2.00;;
53753;SDS011;39667;52.274;20.964;2022-08-04T12:52:54;5.70;;;2.10;;
53753;SDS011;39667;52.274;20.964;2022-08-04T12:55:29;3.30;;;1.90;;
53753;SDS011;39667;52.274;20.964;2022-08-04T12:58:00;2.40;;;2.00;;
53753;SDS011;39667;52.274;20.964;2022-08-04T13:00:35;2.80;;;1.70;;
53753;SDS011;39667;52.274;20.964;2022-08-04T13:03:10;2.40;;;2.00;;
53753;SDS011;39667;52.274;20.964;2022-08-04T13:05:42;2.30;;;1.90;;
53753;SDS011;39667;52.274;20.964;2022-08-04T13:08:10;3.90;;;1.80;;
53753;SDS011;39667;52.274;20.964;2022-08-04T13:10:40;2.20;;;1.80;;
53753;SDS011;39667;52.274;20.964;2022-08-04T13:13:19;3.60;;;1.80;;
53753;SDS011;39667;52.274;20.964;2022-08-04T13:15:59;2.30;;;2.00;;
53753;SDS011;39667;52.274;20.964;2022-08-04T13:18:35;2.30;;;1.80;;
53753;SDS011;39667;52.274;20.964;2022-08-04T13:23:49;2.60;;;1.90;;
53753;SDS011;39667;52.274;20.964;2022-08-04T13:26:55;2.90;;;1.90;;
53753;SDS011;39667;52.274;20.964;2022-08-04T13:29:45;4.10;;;2.20;;
53753;SDS011;39667;52.274;20.964;2022-08-04T13:32:26;2.00;;;1.90;;
53753;SDS011;39667;52.274;20.964;2022-08-04T13:34:54;6.10;;;3.20;;
53753;SDS011;39667;52.274;20.964;2022-08-04T13:37:29;2.00;;;1.80;;
53753;SDS011;39667;52.274;20.964;2022-08-04T13:40:04;3.30;;;2.20;;
53753;SDS011;39667;52.274;20.964;2022-08-04T13:45:03;2.40;;;2.10;;
53753;SDS011;39667;52.274;20.964;2022-08-04T13:47:35;4.70;;;2.20;;
53753;SDS011;39667;52.274;20.964;2022-08-04T13:50:13;2.40;;;1.90;;
53753;SDS011;39667;52.274;20.964;2022-08-04T13:52:46;2.50;;;1.90;;
53753;SDS011;39667;52.274;20.964;2022-08-04T13:55:29;4.90;;;3.20;;
53753;SDS011;39667;52.274;20.964;2022-08-04T14:03:25;4.00;;;1.90;;
53753;SDS011;39667;52.274;20.964;2022-08-04T14:06:24;4.80;;;1.70;;
53753;SDS011;39667;52.274;20.964;2022-08-04T14:09:14;1.90;;;1.70;;
53753;SDS011;39667;52.274;20.964;2022-08-04T14:11:48;3.30;;;1.70;;
53753;SDS011;39667;52.274;20.964;2022-08-04T14:15:10;1.80;;;1.60;;
53753;SDS011;39667;52.274;20.964;2022-08-04T14:17:30;6.40;;;1.90;;
53753;SDS011;39667;52.274;20.964;2022-08-04T14:19:58;5.40;;;1.60;;
53753;SDS011;39667;52.274;20.964;2022-08-04T14:22:28;2.10;;;1.70;;
53753;SDS011;39667;52.274;20.964;2022-08-04T14:24:57;2.10;;;1.90;;
53753;SDS011;39667;52.274;20.964;2022-08-04T14:27:46;3.50;;;1.60;;
53753;SDS011;39667;52.274;20.964;2022-08-04T14:32:55;2.60;;;1.80;;
53753;SDS011;39667;52.274;20.964;2022-08-04T14:35:44;2.70;;;1.80;;
53753;SDS011;39667;52.274;20.964;2022-08-04T14:38:22;1.90;;;1.70;;
53753;SDS011;39667;52.274;20.964;2022-08-04T14:40:49;2.30;;;2.10;;
53753;SDS011;39667;52.274;20.964;2022-08-04T14:43:25;1.60;;;1.50;;
53753;SDS011;39667;52.274;20.964;2022-08-04T14:45:55;3.30;;;2.10;;
53753;SDS011;39667;52.274;20.964;2022-08-04T14:48:30;2.90;;;1.60;;
53753;SDS011;39667;52.274;20.964;2022-08-04T14:50:56;2.20;;;1.70;;
53753;SDS011;39667;52.274;20.964;2022-08-04T14:53:24;2.30;;;1.90;;
53753;SDS011;39667;52.274;20.964;2022-08-04T14:55:55;1.90;;;1.70;;
53753;SDS011;39667;52.274;20.964;2022-08-04T15:01:07;4.40;;;1.80;;
53753;SDS011;39667;52.274;20.964;2022-08-04T15:03:39;3.30;;;1.70;;
53753;SDS011;39667;52.274;20.964;2022-08-04T15:06:22;1.80;;;1.70;;
53753;SDS011;39667;52.274;20.964;2022-08-04T15:08:52;1.70;;;1.50;;
53753;SDS011;39667;52.274;20.964;2022-08-04T15:11:21;4.40;;;1.70;;
53753;SDS011;39667;52.274;20.964;2022-08-04T15:13:53;1.70;;;1.60;;
53753;SDS011;39667;52.274;20.964;2022-08-04T15:16:22;3.60;;;1.90;;
53753;SDS011;39667;52.274;20.964;2022-08-04T15:18:50;3.90;;;1.60;;
53753;SDS011;39667;52.274;20.964;2022-08-04T15:21:22;2.10;;;1.80;;
53753;SDS011;39667;52.274;20.964;2022-08-04T15:23:51;2.90;;;2.40;;
53753;SDS011;39667;52.274;20.964;2022-08-04T15:26:21;4.40;;;1.80;;
53753;SDS011;39667;52.274;20.964;2022-08-04T15:29:04;2.90;;;1.70;;
53753;SDS011;39667;52.274;20.964;2022-08-04T15:31:45;1.80;;;1.50;;
53753;SDS011;39667;52.274;20.964;2022-08-04T15:34:42;3.20;;;1.90;;
53753;SDS011;39667;52.274;20.964;2022-08-04T15:39:57;2.70;;;1.70;;
53753;SDS011;39667;52.274;20.964;2022-08-04T15:42:30;3.90;;;1.70;;
53753;SDS011;39667;52.274;20.964;2022-08-04T15:45:17;2.50;;;2.30;;
53753;SDS011;39667;52.274;20.964;2022-08-04T15:50:36;2.40;;;1.80;;
53753;SDS011;39667;52.274;20.964;2022-08-04T15:53:26;2.90;;;2.00;;
53753;SDS011;39667;52.274;20.964;2022-08-04T15:58:53;3.90;;;1.80;;
53753;SDS011;39667;52.274;20.964;2022-08-04T16:01:21;4.10;;;1.80;;
53753;SDS011;39667;52.274;20.964;2022-08-04T16:03:49;4.30;;;1.70;;
53753;SDS011;39667;52.274;20.964;2022-08-04T16:08:59;3.60;;;1.90;;
53753;SDS011;39667;52.274;20.964;2022-08-04T16:14:08;2.30;;;2.00;;
53753;SDS011;39667;52.274;20.964;2022-08-04T16:21:49;2.40;;;2.20;;
53753;SDS011;39667;52.274;20.964;2022-08-04T16:24:35;2.80;;;1.70;;
53753;SDS011;39667;52.274;20.964;2022-08-04T16:27:03;5.60;;;1.50;;
53753;SDS011;39667;52.274;20.964;2022-08-04T16:37:17;2.40;;;1.60;;
53753;SDS011;39667;52.274;20.964;2022-08-04T16:39:45;3.20;;;1.60;;
53753;SDS011;39667;52.274;20.964;2022-08-04T16:52:44;2.50;;;1.80;;
53753;SDS011;39667;52.274;20.964;2022-08-04T16:55:15;3.60;;;1.60;;
53753;SDS011;39667;52.274;20.964;2022-08-04T16:57:50;2.60;;;2.00;;
53753;SDS011;39667;52.274;20.964;2022-08-04T17:00:29;3.30;;;1.40;;
53753;SDS011;39667;52.274;20.964;2022-08-04T17:03:04;3.20;;;1.50;;
53753;SDS011;39667;52.274;20.964;2022-08-04T17:05:33;3.30;;;1.80;;
53753;SDS011;39667;52.274;20.964;2022-08-04T17:08:06;4.10;;;2.20;;
53753;SDS011;39667;52.274;20.964;2022-08-04T17:10:54;3.60;;;2.20;;
53753;SDS011;39667;52.274;20.964;2022-08-04T17:16:14;5.20;;;1.80;;
53753;SDS011;39667;52.274;20.964;2022-08-04T17:18:45;2.60;;;1.80;;
53753;SDS011;39667;52.274;20.964;2022-08-04T17:21:16;4.40;;;2.10;;
53753;SDS011;39667;52.274;20.964;2022-08-04T17:24:06;2.50;;;1.70;;
53753;SDS011;39667;52.274;20.964;2022-08-04T17:26:43;4.20;;;2.10;;
53753;SDS011;39667;52.274;20.964;2022-08-04T17:29:20;4.00;;;1.80;;
53753;SDS011;39667;52.274;20.964;2022-08-04T17:32:16;2.10;;;1.60;;
53753;SDS011;39667;52.274;20.964;2022-08-04T17:34:51;6.70;;;1.90;;
53753;SDS011;39667;52.274;20.964;2022-08-04T17:37:23;4.40;;;1.60;;
53753;SDS011;39667;52.274;20.964;2022-08-04T17:40:14;5.00;;;1.80;;
53753;SDS011;39667;52.274;20.964;2022-08-04T17:42:48;2.60;;;2.10;;
53753;SDS011;39667;52.274;20.964;2022-08-04T17:45:26;6.90;;;1.70;;
53753;SDS011;39667;52.274;20.964;2022-08-04T17:48:16;3.50;;;1.90;;
53753;SDS011;39667;52.274;20.964;2022-08-04T17:50:50;4.10;;;2.10;;
53753;SDS011;39667;52.274;20.964;2022-08-04T17:53:17;2.50;;;1.90;;
53753;SDS011;39667;52.274;20.964;2022-08-04T17:56:32;2.00;;;1.80;;
53753;SDS011;39667;52.274;20.964;2022-08-04T18:02:08;6.50;;;2.10;;
53753;SDS011;39667;52.274;20.964;2022-08-04T18:04:36;5.70;;;2.30;;
53753;SDS011;39667;52.274;20.964;2022-08-04T18:07:36;3.40;;;1.90;;
53753;SDS011;39667;52.274;20.964;2022-08-04T18:10:37;6.50;;;2.20;;
53753;SDS011;39667;52.274;20.964;2022-08-04T18:13:28;4.00;;;3.60;;
53753;SDS011;39667;52.274;20.964;2022-08-04T18:16:08;3.90;;;3.00;;
53753;SDS011;39667;52.274;20.964;2022-08-04T18:19:07;5.10;;;3.10;;
53753;SDS011;39667;52.274;20.964;2022-08-04T18:21:39;4.70;;;3.20;;
53753;SDS011;39667;52.274;20.964;2022-08-04T18:27:02;6.50;;;3.80;;
53753;SDS011;39667;52.274;20.964;2022-08-04T18:29:32;7.20;;;4.00;;
53753;SDS011;39667;52.274;20.964;2022-08-04T18:32:05;7.00;;;3.10;;
53753;SDS011;39667;52.274;20.964;2022-08-04T18:34:34;3.80;;;2.60;;
53753;SDS011;39667;52.274;20.964;2022-08-04T18:37:06;6.40;;;3.10;;
53753;SDS011;39667;52.274;20.964;2022-08-04T18:39:53;5.90;;;2.70;;
53753;SDS011;39667;52.274;20.964;2022-08-04T18:42:40;4.70;;;2.50;;
53753;SDS011;39667;52.274;20.964;2022-08-04T18:45:08;5.80;;;2.40;;
53753;SDS011;39667;52.274;20.964;2022-08-04T18:47:36;5.20;;;2.70;;
53753;SDS011;39667;52.274;20.964;2022-08-04T18:50:23;7.70;;;3.40;;
53753;SDS011;39667;52.274;20.964;2022-08-04T18:53:10;9.20;;;3.40;;
53753;SDS011;39667;52.274;20.964;2022-08-04T18:55:37;6.90;;;3.20;;
53753;SDS011;39667;52.274;20.964;2022-08-04T18:58:23;6.60;;;3.20;;
53753;SDS011;39667;52.274;20.964;2022-08-04T19:00:53;7.70;;;3.90;;
53753;SDS011;39667;52.274;20.964;2022-08-04T19:03:26;8.30;;;3.30;;
53753;SDS011;39667;52.274;20.964;2022-08-04T19:05:56;5.10;;;2.70;;
53753;SDS011;39667;52.274;20.964;2022-08-04T19:08:23;3.60;;;3.10;;
53753;SDS011;39667;52.274;20.964;2022-08-04T19:11:07;4.40;;;3.20;;
53753;SDS011;39667;52.274;20.964;2022-08-04T19:13:54;7.30;;;3.40;;
53753;SDS011;39667;52.274;20.964;2022-08-04T19:16:27;6.80;;;3.50;;
53753;SDS011;39667;52.274;20.964;2022-08-04T19:18:59;6.50;;;2.90;;
53753;SDS011;39667;52.274;20.964;2022-08-04T19:21:28;4.20;;;3.30;;
53753;SDS011;39667;52.274;20.964;2022-08-04T19:24:15;5.50;;;3.80;;
53753;SDS011;39667;52.274;20.964;2022-08-04T19:26:59;5.40;;;3.60;;
53753;SDS011;39667;52.274;20.964;2022-08-04T19:29:33;5.10;;;3.60;;
53753;SDS011;39667;52.274;20.964;2022-08-04T19:32:06;5.40;;;3.40;;
53753;SDS011;39667;52.274;20.964;2022-08-04T19:34:40;5.10;;;3.80;;
53753;SDS011;39667;52.274;20.964;2022-08-04T19:37:13;6.90;;;4.40;;
53753;SDS011;39667;52.274;20.964;2022-08-04T19:40:07;8.50;;;3.50;;
53753;SDS011;39667;52.274;20.964;2022-08-04T19:42:36;5.80;;;3.40;;
53753;SDS011;39667;52.274;20.964;2022-08-04T19:45:05;5.30;;;3.30;;
53753;SDS011;39667;52.274;20.964;2022-08-04T19:47:32;9.00;;;3.30;;
53753;SDS011;39667;52.274;20.964;2022-08-04T19:50:19;8.30;;;3.10;;
53753;SDS011;39667;52.274;20.964;2022-08-04T19:52:49;5.80;;;3.10;;
53753;SDS011;39667;52.274;20.964;2022-08-04T19:55:19;4.60;;;2.90;;
53753;SDS011;39667;52.274;20.964;2022-08-04T19:57:48;4.00;;;2.80;;
53753;SDS011;39667;52.274;20.964;2022-08-04T20:00:19;5.90;;;3.20;;
53753;SDS011;39667;52.274;20.964;2022-08-04T20:02:59;6.10;;;3.50;;
53753;SDS011;39667;52.274;20.964;2022-08-04T20:05:40;9.10;;;3.70;;
53753;SDS011;39667;52.274;20.964;2022-08-04T20:08:21;5.30;;;3.20;;
53753;SDS011;39667;52.274;20.964;2022-08-04T20:10:49;6.50;;;3.30;;
53753;SDS011;39667;52.274;20.964;2022-08-04T20:13:20;4.40;;;3.60;;
53753;SDS011;39667;52.274;20.964;2022-08-04T20:15:47;5.70;;;3.20;;
53753;SDS011;39667;52.274;20.964;2022-08-04T20:18:23;7.00;;;3.30;;
53753;SDS011;39667;52.274;20.964;2022-08-04T20:21:10;8.00;;;4.20;;
53753;SDS011;39667;52.274;20.964;2022-08-04T20:23:50;9.40;;;6.20;;
53753;SDS011;39667;52.274;20.964;2022-08-04T20:26:18;7.60;;;3.50;;
53753;SDS011;39667;52.274;20.964;2022-08-04T20:28:45;7.10;;;4.60;;
53753;SDS011;39667;52.274;20.964;2022-08-04T20:31:17;4.50;;;3.90;;
53753;SDS011;39667;52.274;20.964;2022-08-04T20:33:44;7.20;;;4.00;;
53753;SDS011;39667;52.274;20.964;2022-08-04T20:36:14;7.10;;;3.10;;
53753;SDS011;39667;52.274;20.964;2022-08-04T20:38:41;9.40;;;4.30;;